TAF AMD UTSK 050759Z 0507/0516 16010G20KT CAVOK
From batch tds/tafs/production/2024/2/5/h08_m00_tafs.cache.xml.gz
Issued (18 days ago)
Forecasts

---
- wx_string
- NSW

---
- fcst_time_to
- '2024-02-05T16:00:00Z'

---
- wind_gust_kt
- '20'

---
- sky_condition
- - sky_cover: NSC

---
- wind_speed_kt
- '10'

---
- fcst_time_from
- '2024-02-05T07:00:00Z'

---
- wind_dir_degrees
- '160'

---
- visibility_statute_mi
- 6+

talk